Time;durP1;ratioP1;P1;durP2;ratioP2;P2;SDS_P1;SDS_P2;PMS_P1;PMS_P2;Temp;Humidity;BMP_temperature;BMP_pressure;BME280_temperature;BME280_humidity;BME280_pressure;Samples;Min_cycle;Max_cycle;Signal;HPM_P1;HPM_P2
2022/03/28 00:00:26;;;;;;;34.93;19.03;;;8.60;99.90;;;;;;4941150;28;20260;-67
2022/03/28 00:02:52;;;;;;;31.93;19.10;;;8.50;99.90;;;;;;4972653;28;20625;-67
2022/03/28 00:05:18;;;;;;;35.57;19.73;;;8.50;99.90;;;;;;4972855;28;20300;-67
2022/03/28 00:07:44;;;;;;;42.20;21.53;;;8.50;99.90;;;;;;4981456;28;20184;-68
2022/03/28 00:10:11;;;;;;;34.03;21.27;;;8.50;99.90;;;;;;4981934;28;20279;-66
2022/03/28 00:12:38;;;;;;;43.50;22.63;;;8.50;99.90;;;;;;4972649;28;20201;-67
2022/03/28 00:15:06;;;;;;;36.33;20.43;;;8.50;99.90;;;;;;4973706;28;20180;-67
2022/03/28 00:17:33;;;;;;;37.20;20.60;;;8.40;99.90;;;;;;4987164;28;20224;-67
2022/03/28 00:20:00;;;;;;;42.70;20.50;;;8.40;99.90;;;;;;4972824;28;20251;-67
2022/03/28 00:22:26;;;;;;;37.37;21.10;;;8.40;99.90;;;;;;4974167;28;20192;-67
2022/03/28 00:24:51;;;;;;;37.13;19.90;;;8.40;99.90;;;;;;4974434;28;20256;-67
2022/03/28 00:27:18;;;;;;;37.00;21.60;;;8.30;99.90;;;;;;4973299;28;20239;-68
2022/03/28 00:29:44;;;;;;;34.53;20.20;;;8.30;99.90;;;;;;4986628;28;20192;-67
2022/03/28 00:32:11;;;;;;;34.33;20.87;;;8.30;99.90;;;;;;4983288;28;20606;-67
2022/03/28 00:34:37;;;;;;;38.23;20.93;;;8.20;99.90;;;;;;4973483;28;20207;-68
2022/03/28 00:37:04;;;;;;;34.73;21.00;;;8.20;99.90;;;;;;4991963;28;20196;-67
2022/03/28 00:39:30;;;;;;;34.77;21.40;;;8.10;99.90;;;;;;4976783;28;20269;-66
2022/03/28 00:41:56;;;;;;;42.30;21.77;;;8.20;99.90;;;;;;4972680;28;20192;-66
2022/03/28 00:44:23;;;;;;;42.50;21.70;;;8.20;99.90;;;;;;4956148;28;20185;-67
2022/03/28 00:46:49;;;;;;;33.80;19.20;;;8.10;99.90;;;;;;4940497;28;20638;-66
2022/03/28 00:49:15;;;;;;;43.10;21.93;;;8.10;99.90;;;;;;4956957;28;20196;-66
2022/03/28 00:51:41;;;;;;;35.70;21.47;;;8.00;99.90;;;;;;4972556;28;20199;-67
2022/03/28 00:54:08;;;;;;;39.03;21.33;;;8.00;99.90;;;;;;4977251;28;20193;-66
2022/03/28 00:56:35;;;;;;;30.43;19.03;;;8.00;99.90;;;;;;4994847;28;20281;-66
2022/03/28 00:59:02;;;;;;;38.10;19.73;;;7.90;99.90;;;;;;4983787;28;20207;-67
2022/03/28 01:01:28;;;;;;;35.77;20.50;;;7.90;99.90;;;;;;4993984;28;20199;-66
2022/03/28 01:03:54;;;;;;;36.57;19.73;;;7.90;99.90;;;;;;4991191;28;20193;-66
2022/03/28 01:06:19;;;;;;;36.27;19.47;;;7.90;99.90;;;;;;4975956;28;20582;-66
2022/03/28 01:08:46;;;;;;;40.67;22.37;;;7.80;99.90;;;;;;4975280;28;20294;-66
2022/03/28 01:11:13;;;;;;;31.87;19.80;;;7.80;99.90;;;;;;4959316;28;20200;-66
2022/03/28 01:13:40;;;;;;;35.63;21.37;;;7.80;99.90;;;;;;4981376;28;20220;-66
2022/03/28 01:16:07;;;;;;;38.93;19.50;;;7.70;99.90;;;;;;4982945;28;20192;-67
2022/03/28 01:18:37;;;;;;;34.43;20.20;;;7.70;99.90;;;;;;4977195;28;20208;-67
2022/03/28 01:21:05;;;;;;;34.67;19.57;;;7.70;99.90;;;;;;4973654;28;20279;-66
2022/03/28 01:23:31;;;;;;;37.20;20.57;;;7.70;99.90;;;;;;4975524;28;20212;-66
2022/03/28 01:25:57;;;;;;;34.83;19.93;;;7.60;99.90;;;;;;4976713;28;20201;-66
2022/03/28 01:28:25;;;;;;;39.23;20.03;;;7.60;99.90;;;;;;4976485;28;20195;-66
2022/03/28 01:30:54;;;;;;;32.40;19.70;;;7.60;99.90;;;;;;4959523;28;20709;-66
2022/03/28 01:33:20;;;;;;;36.50;21.00;;;7.60;99.90;;;;;;4975308;28;20664;-66
2022/03/28 01:35:46;;;;;;;31.37;18.07;;;7.60;99.90;;;;;;4975584;28;20205;-65
2022/03/28 01:38:13;;;;;;;32.70;18.70;;;7.60;99.90;;;;;;4976412;28;20756;-68
2022/03/28 01:40:43;;;;;;;34.70;19.87;;;7.60;99.90;;;;;;4983525;28;20203;-68
2022/03/28 01:43:09;;;;;;;35.73;19.07;;;7.60;99.90;;;;;;4995205;28;20245;-66
2022/03/28 01:45:35;;;;;;;38.37;18.30;;;7.50;99.90;;;;;;4987948;28;20193;-66
2022/03/28 01:48:01;;;;;;;28.50;17.43;;;7.50;99.90;;;;;;4981917;28;20274;-66
2022/03/28 01:50:27;;;;;;;34.17;20.27;;;7.50;99.90;;;;;;4990524;28;20200;-66
2022/03/28 01:52:53;;;;;;;35.13;19.77;;;7.50;99.90;;;;;;4943460;28;20193;-66
2022/03/28 01:55:19;;;;;;;39.77;20.93;;;7.40;99.90;;;;;;4976296;28;20259;-66
2022/03/28 01:57:45;;;;;;;35.13;18.77;;;7.40;99.90;;;;;;4975231;28;20218;-66
2022/03/28 02:00:15;;;;;;;36.27;18.27;;;7.40;99.90;;;;;;4976079;28;20189;-66
2022/03/28 02:02:41;;;;;;;38.13;19.23;;;7.40;99.90;;;;;;4976442;28;20250;-66
2022/03/28 02:05:11;;;;;;;37.27;20.03;;;7.30;99.90;;;;;;4976314;28;20200;-67
2022/03/28 02:07:40;;;;;;;33.23;18.03;;;7.30;99.90;;;;;;4974552;28;20192;-67
2022/03/28 02:10:11;;;;;;;44.23;21.80;;;7.30;99.90;;;;;;4975203;28;20296;-67
2022/03/28 02:12:40;;;;;;;30.93;17.87;;;7.20;99.90;;;;;;4975891;28;20188;-66
2022/03/28 02:15:08;;;;;;;39.57;19.33;;;7.20;99.90;;;;;;4979081;28;20192;-66
2022/03/28 02:17:37;;;;;;;33.17;18.00;;;7.20;99.90;;;;;;4991572;28;20216;-67
2022/03/28 02:20:08;;;;;;;31.17;18.17;;;7.20;99.90;;;;;;4975588;28;20187;-66
2022/03/28 02:22:35;;;;;;;35.30;19.90;;;7.20;99.90;;;;;;4985583;28;20191;-65
2022/03/28 02:25:05;;;;;;;39.37;20.83;;;7.20;99.90;;;;;;4977928;28;20200;-65
2022/03/28 02:27:30;;;;;;;37.73;19.67;;;7.20;99.90;;;;;;4975529;28;20724;-68
2022/03/28 02:29:56;;;;;;;32.37;18.63;;;7.20;99.90;;;;;;4974303;28;20192;-66
2022/03/28 02:32:25;;;;;;;32.63;17.73;;;7.20;99.90;;;;;;4973944;28;20267;-66
2022/03/28 02:34:51;;;;;;;33.83;18.70;;;7.10;99.90;;;;;;4973881;28;20201;-66
2022/03/28 02:37:17;;;;;;;31.47;18.33;;;7.10;99.90;;;;;;4966842;28;20577;-66
2022/03/28 02:39:45;;;;;;;29.27;20.07;;;7.10;99.90;;;;;;4987021;28;20252;-66
2022/03/28 02:42:11;;;;;;;35.20;18.30;;;7.10;99.90;;;;;;4984501;28;20247;-68
2022/03/28 02:44:37;;;;;;;32.37;18.67;;;7.10;99.90;;;;;;4993585;28;20188;-66
2022/03/28 02:47:04;;;;;;;35.47;18.63;;;7.00;99.90;;;;;;4943698;28;20208;-66
2022/03/28 02:49:29;;;;;;;35.47;18.90;;;7.10;99.90;;;;;;4973342;28;20586;-66
2022/03/28 02:51:55;;;;;;;37.33;19.30;;;7.10;99.90;;;;;;4957966;28;20291;-66
2022/03/28 02:54:21;;;;;;;33.57;18.73;;;7.10;99.90;;;;;;4974974;28;20200;-66
2022/03/28 02:56:46;;;;;;;33.07;18.73;;;7.00;99.90;;;;;;4975323;28;20196;-66
2022/03/28 02:59:12;;;;;;;29.17;18.27;;;7.00;99.90;;;;;;4980543;28;20227;-66
2022/03/28 03:01:38;;;;;;;31.03;18.43;;;7.00;99.90;;;;;;4991800;28;20207;-67
2022/03/28 03:04:04;;;;;;;35.07;19.20;;;7.00;99.90;;;;;;4993243;28;20192;-66
2022/03/28 03:06:29;;;;;;;28.60;18.50;;;6.90;99.90;;;;;;4983541;28;20661;-66
2022/03/28 03:08:55;;;;;;;30.60;18.03;;;6.90;99.90;;;;;;4973693;28;20195;-66
2022/03/28 03:11:22;;;;;;;37.40;20.17;;;6.90;99.90;;;;;;4973611;28;20189;-66
2022/03/28 03:13:49;;;;;;;37.23;19.67;;;6.90;99.90;;;;;;4973564;28;20271;-66
2022/03/28 03:16:15;;;;;;;32.77;17.83;;;6.90;99.90;;;;;;4974193;28;20214;-66
2022/03/28 03:18:41;;;;;;;37.60;19.87;;;6.90;99.90;;;;;;4989387;28;20639;-66
2022/03/28 03:21:07;;;;;;;31.40;19.43;;;6.90;99.90;;;;;;4974716;28;20275;-66
2022/03/28 03:23:33;;;;;;;35.03;19.03;;;6.90;99.90;;;;;;4973388;28;20188;-66
2022/03/28 03:25:58;;;;;;;33.03;20.03;;;6.90;99.90;;;;;;4973383;28;20283;-66
2022/03/28 03:28:25;;;;;;;34.07;19.83;;;6.90;99.90;;;;;;4973567;28;20275;-66
2022/03/28 03:30:51;;;;;;;34.00;19.83;;;6.80;99.90;;;;;;4973433;28;20188;-66
2022/03/28 03:33:17;;;;;;;35.33;19.30;;;6.80;99.90;;;;;;4985913;28;20262;-66
2022/03/28 03:35:42;;;;;;;30.57;18.80;;;6.70;99.90;;;;;;4992572;28;20207;-67
2022/03/28 03:38:09;;;;;;;31.53;19.20;;;6.70;99.90;;;;;;4981560;28;20274;-66
2022/03/28 03:40:35;;;;;;;30.10;17.47;;;6.70;99.90;;;;;;4992911;28;20188;-66
2022/03/28 03:43:00;;;;;;;33.53;18.37;;;6.70;99.90;;;;;;4982522;28;20199;-66
2022/03/28 03:45:26;;;;;;;32.47;19.83;;;6.60;99.90;;;;;;4987647;28;20196;-66
2022/03/28 03:47:52;;;;;;;33.73;18.73;;;6.60;99.90;;;;;;4973063;28;20247;-66
2022/03/28 03:50:18;;;;;;;31.40;18.40;;;6.60;99.90;;;;;;4990067;28;20192;-66
2022/03/28 03:52:51;;;;;;;31.97;18.17;;;6.60;99.90;;;;;;4970795;28;20283;-66
2022/03/28 03:55:17;;;;;;;42.73;21.90;;;6.60;99.90;;;;;;4973399;28;20196;-66
2022/03/28 03:57:43;;;;;;;47.97;21.30;;;6.60;99.90;;;;;;4957272;28;20217;-66
2022/03/28 04:00:09;;;;;;;39.83;21.67;;;6.60;99.90;;;;;;4972897;28;20204;-66
2022/03/28 04:02:35;;;;;;;43.23;21.00;;;6.60;99.90;;;;;;4974420;28;20596;-66
2022/03/28 04:05:01;;;;;;;39.80;21.23;;;6.60;99.90;;;;;;4973119;28;20280;-66
2022/03/28 04:07:26;;;;;;;40.50;18.87;;;6.70;99.90;;;;;;4974512;28;20209;-66
2022/03/28 04:09:52;;;;;;;39.70;20.73;;;6.70;99.90;;;;;;4974001;28;20199;-66
2022/03/28 04:12:17;;;;;;;35.40;18.43;;;6.60;99.90;;;;;;4973827;28;20192;-66
2022/03/28 04:14:43;;;;;;;47.37;21.57;;;6.50;99.90;;;;;;4990712;28;20196;-66
2022/03/28 04:17:09;;;;;;;40.20;20.70;;;6.50;99.90;;;;;;4977018;28;20200;-66
2022/03/28 04:19:37;;;;;;;47.90;19.23;;;6.50;99.90;;;;;;4972859;28;20723;-66
2022/03/28 04:22:03;;;;;;;37.50;18.77;;;6.40;99.90;;;;;;4972859;28;20228;-66
2022/03/28 04:24:29;;;;;;;31.27;17.63;;;6.40;99.90;;;;;;4973728;28;20590;-66
2022/03/28 04:26:55;;;;;;;35.17;22.50;;;6.40;99.90;;;;;;4973997;28;20241;-66
2022/03/28 04:29:20;;;;;;;32.20;17.67;;;6.40;99.90;;;;;;4977521;28;20193;-67
2022/03/28 04:31:46;;;;;;;41.57;19.60;;;6.40;99.90;;;;;;4987545;28;20196;-66
2022/03/28 04:34:11;;;;;;;33.53;19.33;;;6.40;99.90;;;;;;4991695;28;20288;-66
2022/03/28 04:36:38;;;;;;;36.00;18.53;;;6.30;99.90;;;;;;4976416;28;20200;-66
2022/03/28 04:39:05;;;;;;;35.17;18.70;;;6.30;99.90;;;;;;4976186;28;20311;-66
2022/03/28 04:41:31;;;;;;;41.40;20.87;;;6.30;99.90;;;;;;4976237;28;20192;-66
2022/03/28 04:43:57;;;;;;;35.67;19.47;;;6.20;99.90;;;;;;4976920;28;20204;-67
2022/03/28 04:46:23;;;;;;;35.10;19.83;;;6.30;99.90;;;;;;4977784;28;20610;-66
2022/03/28 04:48:49;;;;;;;46.77;21.17;;;6.20;99.90;;;;;;4976352;28;20196;-66
2022/03/28 04:51:15;;;;;;;34.00;18.97;;;6.20;99.90;;;;;;4976678;28;20188;-66
2022/03/28 04:53:41;;;;;;;32.87;18.97;;;6.20;99.90;;;;;;4965087;28;20187;-66
2022/03/28 04:56:06;;;;;;;35.33;20.53;;;6.10;99.90;;;;;;4986868;28;20283;-66
2022/03/28 04:58:32;;;;;;;38.77;21.97;;;6.10;99.90;;;;;;4985810;28;20227;-66
2022/03/28 05:00:58;;;;;;;40.57;20.67;;;6.10;99.90;;;;;;4983764;28;20197;-66
2022/03/28 05:03:23;;;;;;;43.00;23.20;;;6.00;99.90;;;;;;4960095;28;20227;-66
2022/03/28 05:05:49;;;;;;;52.27;22.90;;;6.00;99.90;;;;;;4977688;28;20189;-66
2022/03/28 05:08:14;;;;;;;52.60;25.93;;;6.00;99.90;;;;;;4977102;28;20223;-66
2022/03/28 05:10:41;;;;;;;56.60;30.07;;;6.00;99.90;;;;;;4959746;28;20196;-66
2022/03/28 05:13:06;;;;;;;72.57;31.03;;;5.90;99.90;;;;;;4975397;28;20201;-67
2022/03/28 05:15:32;;;;;;;138.63;54.90;;;5.90;99.90;;;;;;4994787;28;20250;-66
2022/03/28 05:17:58;;;;;;;129.47;53.40;;;5.90;99.90;;;;;;4959712;28;20212;-66
2022/03/28 05:20:27;;;;;;;131.07;51.73;;;5.90;99.90;;;;;;4982716;28;20230;-66
2022/03/28 05:22:53;;;;;;;116.90;50.60;;;5.80;99.90;;;;;;4977616;28;20283;-66
2022/03/28 05:25:18;;;;;;;111.90;48.33;;;5.80;99.90;;;;;;4976648;28;20603;-66
2022/03/28 05:27:46;;;;;;;117.47;48.30;;;5.90;99.90;;;;;;4993800;28;20202;-66
2022/03/28 05:30:13;;;;;;;122.13;51.30;;;5.80;99.90;;;;;;4994242;28;20184;-69
2022/03/28 05:32:39;;;;;;;92.97;41.17;;;5.90;99.90;;;;;;4975389;28;20189;-68
2022/03/28 05:35:06;;;;;;;103.57;40.73;;;5.90;99.90;;;;;;4981581;28;20595;-66
2022/03/28 05:37:33;;;;;;;106.23;42.10;;;5.80;99.90;;;;;;4988772;28;20231;-66
2022/03/28 05:39:59;;;;;;;101.67;40.33;;;5.80;99.90;;;;;;4979844;28;20218;-67
2022/03/28 05:42:24;;;;;;;100.60;41.67;;;5.90;99.90;;;;;;4976292;28;20216;-67
2022/03/28 05:44:50;;;;;;;93.83;39.63;;;5.90;99.90;;;;;;4981802;28;20248;-66
2022/03/28 05:47:16;;;;;;;88.20;36.57;;;5.90;99.90;;;;;;4976211;28;20193;-67
2022/03/28 05:49:41;;;;;;;93.47;36.07;;;5.90;99.90;;;;;;4981726;28;20210;-67
2022/03/28 05:52:07;;;;;;;99.57;37.70;;;5.90;99.90;;;;;;4989690;28;20284;-66
2022/03/28 05:54:33;;;;;;;77.20;34.47;;;5.90;99.90;;;;;;4976076;28;20650;-66
2022/03/28 05:57:00;;;;;;;70.63;31.53;;;5.90;99.90;;;;;;4985758;28;20188;-66
2022/03/28 05:59:25;;;;;;;66.87;35.57;;;6.00;99.90;;;;;;4976834;28;20223;-66
2022/03/28 06:01:51;;;;;;;78.47;28.23;;;6.10;99.90;;;;;;4974817;28;20197;-66
2022/03/28 06:04:18;;;;;;;61.03;28.87;;;6.10;99.90;;;;;;4975359;28;20189;-67
2022/03/28 06:06:44;;;;;;;58.53;27.60;;;6.20;99.90;;;;;;4974545;28;20188;-66
2022/03/28 06:09:10;;;;;;;61.30;28.03;;;6.20;99.90;;;;;;4975978;28;20197;-66
2022/03/28 06:11:35;;;;;;;55.90;23.60;;;6.30;99.90;;;;;;4975611;28;20287;-66
2022/03/28 06:14:02;;;;;;;52.53;23.93;;;6.40;99.90;;;;;;4975026;28;20275;-66
2022/03/28 06:16:27;;;;;;;51.43;26.73;;;6.40;99.90;;;;;;4975878;28;20184;-66
2022/03/28 06:18:53;;;;;;;49.73;22.77;;;6.40;99.90;;;;;;4974264;28;20220;-68
2022/03/28 06:21:19;;;;;;;53.83;19.80;;;6.60;99.90;;;;;;4976082;28;20191;-67
2022/03/28 06:23:45;;;;;;;48.50;21.43;;;6.70;99.90;;;;;;4990794;28;20697;-66
2022/03/28 06:26:11;;;;;;;46.80;21.57;;;6.80;99.90;;;;;;4975276;28;20717;-66
2022/03/28 06:28:41;;;;;;;36.57;21.13;;;6.80;99.90;;;;;;4974266;28;20488;-67
2022/03/28 06:31:08;;;;;;;43.40;19.23;;;6.90;99.90;;;;;;4975850;28;20658;-66
2022/03/28 06:33:34;;;;;;;52.53;21.00;;;7.00;99.90;;;;;;4974576;28;20635;-66
2022/03/28 06:36:00;;;;;;;44.97;18.30;;;7.20;99.90;;;;;;4974642;28;20615;-66
2022/03/28 06:38:26;;;;;;;41.73;21.30;;;7.20;99.90;;;;;;4973965;28;20228;-67
2022/03/28 06:40:52;;;;;;;41.43;19.73;;;7.40;99.90;;;;;;4974143;28;20199;-66
2022/03/28 06:43:18;;;;;;;42.70;19.83;;;7.40;99.90;;;;;;4974130;28;20188;-66
2022/03/28 06:45:44;;;;;;;51.37;21.33;;;7.50;99.90;;;;;;4975632;28;20275;-67
2022/03/28 06:48:09;;;;;;;54.30;23.13;;;7.60;99.90;;;;;;4984212;28;20235;-66
2022/03/28 06:50:35;;;;;;;44.33;21.27;;;7.70;99.90;;;;;;4974360;28;20200;-66
2022/03/28 06:53:02;;;;;;;45.57;21.87;;;7.80;99.90;;;;;;4973633;28;20195;-67
2022/03/28 06:55:28;;;;;;;49.07;22.40;;;7.90;99.90;;;;;;4973515;28;20582;-68
2022/03/28 06:57:55;;;;;;;44.93;20.93;;;8.00;99.90;;;;;;4973904;28;20216;-67
2022/03/28 07:00:20;;;;;;;52.23;21.53;;;8.10;99.90;;;;;;4957728;28;20221;-67
2022/03/28 07:02:46;;;;;;;42.50;22.20;;;8.20;99.90;;;;;;4988065;28;20589;-67
2022/03/28 07:05:12;;;;;;;46.67;22.27;;;8.40;99.90;;;;;;4973443;28;20185;-67
2022/03/28 07:07:43;;;;;;;40.33;19.47;;;8.50;99.90;;;;;;4974550;28;20631;-67
2022/03/28 07:10:10;;;;;;;40.03;20.53;;;8.60;99.90;;;;;;4973859;28;20450;-67
2022/03/28 07:12:36;;;;;;;34.67;19.63;;;8.70;99.90;;;;;;4974570;28;20220;-68
2022/03/28 07:15:02;;;;;;;53.40;21.70;;;8.90;99.90;;;;;;4993759;28;20184;-67
2022/03/28 07:17:28;;;;;;;45.07;20.80;;;9.10;99.90;;;;;;4974905;28;20215;-68
2022/03/28 07:19:54;;;;;;;43.60;20.23;;;9.20;99.90;;;;;;4973830;28;20216;-67
2022/03/28 07:22:19;;;;;;;37.43;20.60;;;9.20;99.90;;;;;;4974193;28;20192;-67
2022/03/28 07:24:45;;;;;;;49.43;20.80;;;9.40;99.90;;;;;;4973968;28;20196;-67
2022/03/28 07:27:10;;;;;;;40.73;21.47;;;9.70;99.90;;;;;;4974255;28;20267;-67
2022/03/28 07:29:38;;;;;;;54.77;23.83;;;10.80;99.90;;;;;;4974271;28;20607;-67
2022/03/28 07:32:04;;;;;;;46.40;20.30;;;12.20;99.90;;;;;;4973720;28;20195;-67
2022/03/28 07:34:30;;;;;;;50.17;21.48;;;13.60;99.90;;;;;;4990498;28;20188;-68
2022/03/28 07:37:02;;;;;;;50.95;19.02;;;14.60;99.90;;;;;;4959667;28;20204;-68
2022/03/28 07:39:29;;;;;;;54.22;19.63;;;15.50;99.90;;;;;;4972814;28;20231;-69
2022/03/28 07:41:54;;;;;;;46.90;20.10;;;16.20;99.90;;;;;;4973965;28;20188;-68
2022/03/28 07:44:20;;;;;;;52.63;19.85;;;16.70;99.90;;;;;;4991721;28;20183;-68
2022/03/28 07:46:47;;;;;;;49.65;19.88;;;17.40;99.90;;;;;;4976418;28;20193;-68
2022/03/28 07:49:13;;;;;;;37.78;18.58;;;17.70;99.90;;;;;;4984372;28;20622;-69
2022/03/28 07:51:39;;;;;;;38.03;19.17;;;18.20;99.90;;;;;;4973205;28;20212;-68
2022/03/28 07:54:05;;;;;;;38.00;19.08;;;18.30;99.90;;;;;;4990575;28;20188;-68
2022/03/28 07:56:31;;;;;;;48.67;19.70;;;18.70;99.90;;;;;;4979117;28;20188;-68
2022/03/28 07:58:58;;;;;;;40.88;18.48;;;19.20;99.90;;;;;;4972958;28;20275;-68
2022/03/28 08:01:24;;;;;;;58.50;17.98;;;19.50;99.90;;;;;;4975214;28;20196;-68
2022/03/28 08:03:49;;;;;;;43.92;19.27;;;19.70;99.90;;;;;;4979551;28;20196;-68
2022/03/28 08:06:15;;;;;;;40.58;19.52;;;19.60;99.90;;;;;;4981164;28;20184;-68
2022/03/28 08:08:41;;;;;;;41.75;21.10;;;20.10;99.90;;;;;;4980161;28;20216;-68
2022/03/28 08:11:07;;;;;;;37.90;19.50;;;20.30;99.90;;;;;;4979321;28;20191;-70
2022/03/28 08:13:34;;;;;;;36.05;18.58;;;20.30;99.90;;;;;;4994545;28;20181;-69
2022/03/28 08:16:00;;;;;;;40.53;18.77;;;20.40;99.90;;;;;;4980887;28;20186;-69
2022/03/28 08:18:26;;;;;;;36.40;17.33;;;20.70;99.90;;;;;;4981932;28;20208;-69
2022/03/28 08:20:53;;;;;;;31.10;17.52;;;20.80;99.90;;;;;;4991103;28;20192;-69
2022/03/28 08:23:20;;;;;;;36.70;20.25;;;21.10;99.90;;;;;;4987075;28;20254;-69
2022/03/28 08:25:47;;;;;;;35.53;19.23;;;21.10;99.90;;;;;;4982574;28;20552;-69
2022/03/28 08:28:13;;;;;;;35.83;20.75;;;21.40;99.90;;;;;;4979175;28;20660;-69
2022/03/28 08:30:39;;;;;;;33.63;18.05;;;21.30;99.90;;;;;;4988303;28;20192;-69
2022/03/28 08:33:05;;;;;;;30.80;18.65;;;21.60;99.90;;;;;;4984886;28;20534;-69
2022/03/28 08:35:31;;;;;;;29.65;17.23;;;22.00;99.90;;;;;;4995357;28;20241;-69
2022/03/28 08:37:57;;;;;;;34.00;17.88;;;21.80;99.90;;;;;;4978494;28;20834;-68
2022/03/28 08:40:23;;;;;;;40.03;19.25;;;21.70;99.90;;;;;;4978480;28;20267;-69
2022/03/28 08:42:49;;;;;;;33.33;17.08;;;21.70;99.90;;;;;;4978841;28;20618;-72
2022/03/28 08:45:15;;;;;;;45.17;18.10;;;21.30;99.90;;;;;;4979783;28;20208;-70
2022/03/28 08:47:48;;;;;;;33.42;18.48;;;20.90;99.90;;;;;;4978449;28;20290;-70
2022/03/28 08:50:15;;;;;;;34.85;17.67;;;20.60;99.90;;;;;;4994262;28;20211;-69
2022/03/28 08:52:41;;;;;;;26.88;16.85;;;19.60;99.90;;;;;;4982660;28;20641;-70
2022/03/28 08:55:09;;;;;;;32.55;16.77;;;18.40;99.90;;;;;;4994313;28;20192;-68
2022/03/28 08:57:34;;;;;;;28.65;17.00;;;17.60;99.90;;;;;;4992879;28;20239;-68
2022/03/28 09:00:00;;;;;;;31.95;18.08;;;17.00;99.90;;;;;;4988811;28;20298;-68
2022/03/28 09:02:46;;;;;;;35.08;19.30;;;16.20;99.90;;;;;;4962986;28;20199;-67
2022/03/28 09:05:14;;;;;;;36.72;20.05;;;15.10;99.90;;;;;;4979870;28;20727;-67
2022/03/28 09:07:40;;;;;;;35.30;20.63;;;14.30;99.90;;;;;;4983006;28;20216;-66
2022/03/28 09:10:11;;;;;;;34.10;19.38;;;14.00;99.90;;;;;;4985674;28;20188;-66
2022/03/28 09:12:41;;;;;;;41.90;18.38;;;14.10;99.90;;;;;;4984042;28;20331;-66
2022/03/28 09:15:14;;;;;;;31.98;19.05;;;14.30;99.90;;;;;;4978271;28;20201;-66
2022/03/28 09:17:40;;;;;;;36.78;19.92;;;14.30;99.90;;;;;;4973520;28;20209;-66
2022/03/28 09:20:07;;;;;;;32.47;19.30;;;14.30;99.90;;;;;;4986802;28;20276;-66
2022/03/28 09:22:35;;;;;;;41.45;20.25;;;14.40;99.90;;;;;;4981603;28;20184;-66
2022/03/28 09:25:12;;;;;;;29.80;19.42;;;14.60;99.90;;;;;;4980504;28;20243;-66
2022/03/28 09:27:40;;;;;;;29.30;17.27;;;14.70;99.90;;;;;;4976933;28;20198;-69
2022/03/28 09:30:12;;;;;;;38.33;21.50;;;14.80;99.90;;;;;;4977136;28;20185;-69
2022/03/28 09:32:40;;;;;;;39.08;20.00;;;14.90;99.90;;;;;;4985677;28;20188;-70
2022/03/28 09:35:06;;;;;;;29.27;17.85;;;15.10;99.90;;;;;;4995117;28;20188;-69
2022/03/28 09:37:46;;;;;;;33.40;19.77;;;15.10;99.90;;;;;;4981203;28;20619;-71
2022/03/28 09:40:26;;;;;;;36.97;21.42;;;15.40;99.90;;;;;;4982993;28;20214;-70
2022/03/28 09:42:52;;;;;;;29.92;18.52;;;15.60;99.90;;;;;;4981717;28;20204;-71
2022/03/28 09:45:20;;;;;;;37.63;20.23;;;15.50;99.90;;;;;;4975291;28;20595;-71
2022/03/28 09:47:59;;;;;;;32.03;18.27;;;15.50;99.90;;;;;;4980532;28;20192;-72
2022/03/28 09:50:30;;;;;;;33.78;19.95;;;15.40;99.90;;;;;;4989826;28;20184;-73
2022/03/28 09:52:56;;;;;;;37.72;19.33;;;15.40;99.90;;;;;;4993635;28;20239;-73
2022/03/28 09:55:21;;;;;;;32.33;18.88;;;15.40;99.90;;;;;;4967920;28;20196;-74
2022/03/28 09:57:47;;;;;;;33.13;17.35;;;15.60;99.90;;;;;;4959782;28;20208;-74
2022/03/28 10:00:20;;;;;;;31.98;19.15;;;15.70;99.90;;;;;;4985893;28;20189;-74
2022/03/28 10:02:47;;;;;;;33.83;18.95;;;15.70;99.90;;;;;;4976133;28;20212;-74
2022/03/28 10:05:13;;;;;;;35.70;20.48;;;15.70;99.90;;;;;;4974873;28;20712;-73
2022/03/28 10:07:39;;;;;;;35.70;19.77;;;15.80;99.90;;;;;;4977434;28;20298;-73
2022/03/28 10:10:06;;;;;;;37.00;19.50;;;15.90;99.90;;;;;;4976911;28;20267;-73
2022/03/28 10:12:33;;;;;;;44.03;20.23;;;16.10;99.90;;;;;;4980345;28;20645;-72
2022/03/28 10:15:00;;;;;;;37.33;19.80;;;15.90;99.90;;;;;;4974549;28;20214;-74
2022/03/28 10:17:28;;;;;;;30.80;19.50;;;15.80;99.90;;;;;;4971283;28;20284;-74
2022/03/28 10:19:53;;;;;;;33.28;18.52;;;15.80;99.90;;;;;;4987559;28;20192;-72
2022/03/28 10:22:38;;;;;;;37.08;20.17;;;15.90;99.90;;;;;;4970974;28;20243;-74
2022/03/28 10:25:16;;;;;;;34.20;19.98;;;15.90;99.90;;;;;;4975354;28;20252;-74
2022/03/28 10:27:42;;;;;;;32.88;19.88;;;16.10;99.90;;;;;;4974121;28;20197;-74
2022/03/28 10:30:24;;;;;;;31.73;17.85;;;16.40;99.90;;;;;;4988466;28;20191;-71
2022/03/28 10:33:09;;;;;;;28.02;16.55;;;16.30;99.90;;;;;;4994369;28;20184;-72
2022/03/28 10:35:35;;;;;;;28.75;16.88;;;16.20;99.90;;;;;;4988275;28;20200;-73
2022/03/28 10:38:19;;;;;;;33.33;17.23;;;16.20;99.90;;;;;;4986283;28;20212;-73
2022/03/28 10:40:57;;;;;;;30.40;16.25;;;16.20;99.90;;;;;;4972230;28;20192;-77
2022/03/28 10:43:25;;;;;;;26.98;16.30;;;16.20;99.90;;;;;;4977884;28;20215;-78
2022/03/28 10:46:00;;;;;;;40.50;17.00;;;16.40;99.90;;;;;;4990274;28;20191;-71
2022/03/28 10:48:39;;;;;;;28.75;15.85;;;16.40;99.90;;;;;;4976523;28;20184;-74
2022/03/28 10:51:26;;;;;;;25.80;14.40;;;16.40;99.90;;;;;;4978301;28;20183;-73
2022/03/28 10:53:54;;;;;;;22.13;13.90;;;16.60;99.90;;;;;;4982905;28;20175;-70
2022/03/28 10:56:25;;;;;;;27.10;15.48;;;16.60;99.90;;;;;;4993374;28;20260;-70
2022/03/28 10:58:55;;;;;;;23.85;15.20;;;16.70;99.90;;;;;;4991489;28;20584;-74
2022/03/28 11:01:27;;;;;;;33.10;14.77;;;16.40;99.90;;;;;;4983570;28;20666;-72
2022/03/28 11:04:04;;;;;;;27.73;14.88;;;16.40;99.90;;;;;;4976195;28;20223;-71
2022/03/28 11:07:05;;;;;;;29.88;15.75;;;16.50;99.90;;;;;;4974253;28;20188;-73
2022/03/28 11:09:50;;;;;;;31.77;15.48;;;16.60;99.90;;;;;;4974679;28;20202;-74
2022/03/28 11:12:38;;;;;;;27.05;13.90;;;16.70;99.90;;;;;;4974201;28;20646;-73
2022/03/28 11:15:18;;;;;;;26.10;13.18;;;16.80;99.90;;;;;;4974885;28;20294;-73
2022/03/28 11:17:57;;;;;;;32.10;14.07;;;16.80;99.90;;;;;;4982865;28;20695;-74
2022/03/28 11:20:25;;;;;;;27.60;15.50;;;16.80;99.90;;;;;;4975492;28;20191;-76
2022/03/28 11:23:06;;;;;;;30.55;15.75;;;16.90;99.90;;;;;;4986278;28;20192;-83
2022/03/28 11:25:44;;;;;;;27.92;14.23;;;16.80;99.90;;;;;;4984861;28;20283;-73
2022/03/28 11:28:22;;;;;;;36.38;17.75;;;16.60;99.90;;;;;;4988863;28;20660;-81
2022/03/28 11:31:09;;;;;;;32.22;15.77;;;16.80;99.90;;;;;;4974257;28;20187;-79
2022/03/28 11:33:41;;;;;;;38.53;17.10;;;16.90;99.90;;;;;;4973588;28;20231;-78
2022/03/28 11:36:11;;;;;;;25.95;15.48;;;16.90;99.90;;;;;;4983150;28;20203;-77
2022/03/28 11:38:45;;;;;;;29.27;16.48;;;16.90;99.90;;;;;;4958711;28;20212;-72
2022/03/28 11:41:12;;;;;;;33.13;15.13;;;16.90;99.90;;;;;;4974648;28;20555;-79
2022/03/28 11:43:43;;;;;;;35.72;15.70;;;17.20;99.90;;;;;;4975183;28;20307;-80
2022/03/28 11:46:21;;;;;;;32.88;16.00;;;17.30;99.90;;;;;;4988737;28;20192;-72
2022/03/28 11:49:09;;;;;;;30.10;17.45;;;17.30;99.90;;;;;;4973532;28;20563;-78
2022/03/28 11:51:40;;;;;;;26.85;14.93;;;17.40;99.90;;;;;;4974500;28;20176;-77
2022/03/28 11:54:07;;;;;;;34.30;15.75;;;17.30;99.90;;;;;;4978461;28;20192;-79
2022/03/28 11:58:14;;;;;;;33.55;16.85;;;17.50;99.90;;;;;;4979370;28;20587;-77
2022/03/28 11:59:21;;;;;;;31.00;15.65;;;17.60;99.90;;;;;;4985822;28;20308;-77
2022/03/28 12:01:49;;;;;;;38.47;17.55;;;17.60;99.90;;;;;;4984332;28;20646;-81
2022/03/28 12:04:18;;;;;;;32.20;16.33;;;17.80;99.90;;;;;;4970195;28;20181;-74
2022/03/28 12:06:44;;;;;;;42.97;19.70;;;17.80;99.90;;;;;;4976555;28;20185;-76
2022/03/28 12:09:16;;;;;;;36.92;19.25;;;17.80;99.90;;;;;;4973755;28;20720;-76
2022/03/28 12:11:48;;;;;;;31.90;16.83;;;17.70;99.90;;;;;;4976114;28;20653;-77
2022/03/28 12:14:14;;;;;;;34.10;16.50;;;17.80;99.90;;;;;;4973754;28;20675;-77
2022/03/28 12:16:51;;;;;;;38.53;18.05;;;17.90;99.90;;;;;;4972379;28;20275;-75
2022/03/28 12:19:19;;;;;;;36.90;18.00;;;17.90;99.90;;;;;;4973741;28;20215;-75
2022/03/28 12:21:45;;;;;;;26.98;16.85;;;17.70;99.90;;;;;;4973492;28;20215;-76
2022/03/28 12:24:11;;;;;;;25.73;15.63;;;17.60;99.90;;;;;;4973821;28;20650;-77
2022/03/28 12:26:42;;;;;;;34.83;16.73;;;17.50;99.90;;;;;;4971866;28;20675;-79
2022/03/28 12:29:11;;;;;;;31.45;17.58;;;17.60;99.90;;;;;;4982792;28;20201;-74
2022/03/28 12:31:36;;;;;;;27.92;16.10;;;17.60;99.90;;;;;;4978299;28;20192;-70
2022/03/28 12:34:02;;;;;;;32.47;14.82;;;17.70;99.90;;;;;;4973949;28;20187;-72
2022/03/28 12:36:30;;;;;;;30.58;16.92;;;17.70;99.90;;;;;;4973129;28;20295;-72